Skip Navigation Links
NOAA logo - Click to go to the NOAA homepage
NOAA's National Weather Service
Alaska Aviation Weather Unit
  NWS logo - Click to go to the NWS homepage
Left Navbar Graphic     00 AKDT = 08 GMT

   
NOAA is celebrating 200 years of science, service, and stewardship. Visit the NOAA 200th celebration Web site to learn more.
USA.gov is the U.S. Government's official Web portal to all Federal, state and local government Web resources and services.
Facebook
NWS on Facebook

Important Change Regarding the AAWU Web Presence

 

Over the last several months, the AAWU has been working to navigate its webpages to a nationally supported server. Security, as well as other needs, have necessitated the change.  We have been given an extension for the site changeover while we diligently work at addressing feedback received. As of July 14, 2017, aawu.arh.noaa.gov will be discontinued. The new AAWU web address is weather.gov/aawu. It is now live and will run in-parallel with the old site until it is discontinued on July 14, 2017. Please continue to send any feedback or questions regarding the new webpages to nws.ar.aawu.webauthors@noaa.gov.  Thank you for your patience during this time of transition.
AAWU Home :: Display TAF Add Bookmark
TAF PADQ 240541Z 2406/2506  10010KT P6SM VCSH SCT025 OVC035
      TEMPO 2406/2410 BKN022
     FM241000 28008KT P6SM VCSH SCT025 BKN040
     FM241800 28015KT P6SM FEW030 SCT060=

4447
FTAK31 PANC 240541
TAFAEN
TAF

PADQ 240212Z 10008KT 10SM SCT027 BKN038 OVC060 11/10 A2930= PADQ 240212Z 10008KT 10SM SCT027 BKN038 OVC060 11/10 A2930 RMK AO2 T01060100= PADQ 240230Z 13007KT 10SM BKN027 BKN040 OVC060 11/10 A2930= PADQ 240230Z 13007KT 10SM BKN027 BKN040 OVC060 11/10 A2930 RMK AO2 T01110100= METAR PADQ 240253Z 13005KT 10SM SCT022 BKN027 OVC070 11/09 A2930= PADQ 240304Z 13004KT 10SM FEW022 SCT026 OVC070 11/09 A2930= SPECI PADQ 240304Z 13004KT 10SM FEW022 SCT026 OVC070 11/09 A2930 RMK AO2 T01110094= PADQ 240332Z 10008KT 10SM BKN021 BKN026 OVC095 11/09 A2930= SPECI PADQ 240332Z 10008KT 10SM BKN021 BKN026 OVC095 11/09 A2930 RMK AO2 T01060094= METAR PADQ 240353Z 12008KT 10SM OVC021 11/09 A2930= METAR PADQ 240453Z 11006KT 10SM BKN024 BKN031 10/09 A2931= PADQ 240508Z 11008KT 10SM SCT024 BKN035 09/09 A2931= PADQ 240508Z 11008KT 10SM SCT024 BKN035 09/09 A2931 RMK AO2 T00940089= PADQ 240533Z 00000KT 10SM BKN022 09/09 A2931= SPECI PADQ 240533Z 00000KT 10SM BKN022 09/09 A2931 RMK AO2 T00940089= METAR PADQ 240553Z 06005KT 10SM BKN022 09/08 A2931= PADQ 240606Z AUTO 06003KT 10SM SCT021 09/08 A2931= PADQ 240624Z AUTO 00000KT 10SM FEW009 08/08 A2932= METAR PADQ 240653Z AUTO 29003KT 9SM FEW090 07/07 A2932= SPECI PADQ 240723Z AUTO 28004KT 9SM BKN014 07/07 A2933 RMK AO2 T00670067 TSNO= PADQ 240751Z AUTO 29004KT 10SM OVC015 07/07 A2933= METAR PADQ 240753Z AUTO 29004KT 10SM OVC015 07/07 A2934=
 Alaska TAF Map

NOAA's National Weather Service
Alaska Aviation Weather Unit
6930 Sand Lake Road
Anchorage, AK 99502-1845
Disclaimer
Credits
Glossary
Privacy Policy
About Us
Career Opportunities
Contact AAWU Internet Services Site last modified: April, 17th 2012